Time;durP1;ratioP1;P1;durP2;ratioP2;P2;SDS_P1;SDS_P2;PMS_P1;PMS_P2;Temp;Humidity;BMP_temperature;BMP_pressure;BME280_temperature;BME280_humidity;BME280_pressure;Samples;Min_cycle;Max_cycle;Signal;HPM_P1;HPM_P2
2022/10/28 00:00:16;;;;;;;17.77;8.90;;;13.20;99.90;;;;;;5073489;28;20029;-71
2022/10/28 00:02:42;;;;;;;13.50;7.88;;;13.10;99.90;;;;;;5073213;28;20055;-71
2022/10/28 00:05:08;;;;;;;31.70;8.77;;;13.10;99.90;;;;;;5073269;28;20028;-71
2022/10/28 00:07:33;;;;;;;19.73;10.38;;;13.00;99.90;;;;;;5055301;28;20027;-71
2022/10/28 00:09:59;;;;;;;15.32;8.80;;;13.00;99.90;;;;;;5073179;28;20480;-71
2022/10/28 00:12:24;;;;;;;23.58;9.18;;;13.00;99.90;;;;;;5063541;28;20056;-72
2022/10/28 00:14:50;;;;;;;14.10;8.35;;;12.90;99.90;;;;;;5072854;28;20479;-72
2022/10/28 00:17:16;;;;;;;19.42;9.85;;;12.80;99.90;;;;;;5073404;28;20032;-71
2022/10/28 00:19:41;;;;;;;22.55;10.00;;;12.80;99.90;;;;;;5072984;28;20060;-71
2022/10/28 00:22:07;;;;;;;22.42;9.63;;;12.70;99.90;;;;;;5071666;28;20036;-71
2022/10/28 00:24:32;;;;;;;16.25;9.80;;;12.80;99.90;;;;;;5073061;28;20028;-71
2022/10/28 00:26:58;;;;;;;22.48;10.32;;;12.70;99.90;;;;;;5073078;28;20454;-71
2022/10/28 00:29:24;;;;;;;19.13;10.68;;;12.70;99.90;;;;;;5073005;28;20442;-71
2022/10/28 00:31:51;;;;;;;29.77;13.00;;;12.70;99.90;;;;;;5072942;28;20060;-71
2022/10/28 00:34:20;;;;;;;27.48;11.82;;;12.70;99.90;;;;;;5073331;28;20107;-71
2022/10/28 00:36:46;;;;;;;20.52;12.85;;;12.70;99.90;;;;;;5077105;28;20029;-71
2022/10/28 00:39:23;;;;;;;28.45;12.38;;;12.60;99.90;;;;;;5076918;28;20059;-71
2022/10/28 00:41:53;;;;;;;33.63;14.25;;;12.70;99.90;;;;;;5076893;28;20025;-71
2022/10/28 00:44:59;;;;;;;24.67;12.45;;;12.70;99.90;;;;;;5077697;28;20031;-70
2022/10/28 00:47:40;;;;;;;22.45;13.10;;;12.60;99.90;;;;;;5077229;28;20074;-71
2022/10/28 00:50:22;;;;;;;31.85;15.00;;;12.60;99.90;;;;;;5076835;28;20020;-71
2022/10/28 00:52:53;;;;;;;32.13;15.80;;;12.60;99.90;;;;;;5077214;28;20035;-71
2022/10/28 00:55:19;;;;;;;50.65;16.02;;;12.60;99.90;;;;;;5077020;28;20073;-71
2022/10/28 00:57:46;;;;;;;41.80;16.75;;;12.50;99.90;;;;;;5076698;28;20028;-71
2022/10/28 01:00:12;;;;;;;24.60;14.40;;;12.70;99.90;;;;;;5076516;28;20024;-71
2022/10/28 01:02:47;;;;;;;29.15;15.75;;;12.70;99.90;;;;;;5076417;28;20127;-71
2022/10/28 01:05:15;;;;;;;29.33;16.00;;;12.60;99.90;;;;;;5076757;28;20021;-71
2022/10/28 01:07:42;;;;;;;31.13;16.88;;;12.60;99.90;;;;;;5076417;28;20071;-71
2022/10/28 01:10:09;;;;;;;30.80;16.17;;;12.60;99.90;;;;;;5076388;28;20070;-71
2022/10/28 01:12:51;;;;;;;32.55;16.48;;;12.50;99.90;;;;;;5076417;28;20029;-71
2022/10/28 01:15:35;;;;;;;33.35;17.45;;;12.40;99.90;;;;;;5076847;28;20028;-71
2022/10/28 01:18:18;;;;;;;26.25;14.73;;;12.30;99.90;;;;;;5075758;28;20024;-71
2022/10/28 01:20:54;;;;;;;29.27;16.25;;;12.20;99.90;;;;;;5076517;28;20389;-71
2022/10/28 01:23:46;;;;;;;41.42;16.83;;;12.20;99.90;;;;;;5076339;28;20036;-71
2022/10/28 01:26:22;;;;;;;41.25;18.40;;;12.10;99.90;;;;;;5076096;28;20090;-71
2022/10/28 01:29:16;;;;;;;35.35;16.55;;;12.10;99.90;;;;;;5076096;28;20040;-71
2022/10/28 01:31:56;;;;;;;31.38;18.00;;;12.00;99.90;;;;;;5075989;28;20082;-71
2022/10/28 01:34:51;;;;;;;27.85;16.80;;;12.10;99.90;;;;;;5075986;28;20094;-71
2022/10/28 01:37:29;;;;;;;35.10;19.25;;;12.10;99.90;;;;;;5076710;28;20029;-71
2022/10/28 01:40:26;;;;;;;38.53;19.23;;;12.10;99.90;;;;;;5076505;28;20434;-71
2022/10/28 01:43:03;;;;;;;40.40;19.17;;;12.10;99.90;;;;;;5076002;28;20027;-71
2022/10/28 01:45:53;;;;;;;40.03;20.83;;;12.10;99.90;;;;;;5076155;28;20017;-71
2022/10/28 01:48:24;;;;;;;44.70;21.80;;;12.20;99.90;;;;;;5076008;28;20042;-71
2022/10/28 01:51:04;;;;;;;53.88;25.40;;;12.20;99.90;;;;;;5076237;28;20158;-71
2022/10/28 01:53:34;;;;;;;50.45;24.25;;;12.40;99.90;;;;;;5075908;28;20071;-71
2022/10/28 01:56:06;;;;;;;47.67;22.27;;;12.30;99.90;;;;;;5075817;28;20039;-71
2022/10/28 01:58:35;;;;;;;46.10;23.88;;;12.30;99.90;;;;;;5075393;28;20024;-71
2022/10/28 02:01:05;;;;;;;47.60;25.08;;;12.20;99.90;;;;;;5074205;28;20017;-71
2022/10/28 02:03:30;;;;;;;46.78;22.83;;;12.20;99.90;;;;;;5075199;28;20037;-71
2022/10/28 02:05:59;;;;;;;48.33;23.33;;;12.10;99.90;;;;;;5068521;28;20043;-71
2022/10/28 02:08:35;;;;;;;49.88;23.88;;;12.20;99.90;;;;;;5071288;28;20484;-70
2022/10/28 02:11:19;;;;;;;46.42;24.60;;;12.20;99.90;;;;;;5061362;28;20021;-71
2022/10/28 02:14:10;;;;;;;;;;;12.20;99.90;;;;;;5066746;28;20436;-70
2022/10/28 02:16:50;;;;;;;51.00;24.13;;;12.20;99.90;;;;;;5031899;28;20360;-71
2022/10/28 02:19:41;;;;;;;56.13;26.80;;;12.20;99.90;;;;;;5055320;28;20036;-70
2022/10/28 02:22:28;;;;;;;46.90;24.45;;;12.20;99.90;;;;;;5055211;28;20024;-70
2022/10/28 02:25:15;;;;;;;49.22;24.65;;;12.20;99.90;;;;;;5055886;28;20412;-71
2022/10/28 02:28:05;;;;;;;48.60;21.55;;;12.20;99.90;;;;;;5054750;28;20021;-71
2022/10/28 02:30:51;;;;;;;42.53;22.95;;;12.10;99.90;;;;;;5055078;28;20024;-70
2022/10/28 02:33:21;;;;;;;41.15;22.35;;;12.00;99.90;;;;;;5055011;28;20112;-70
2022/10/28 02:36:00;;;;;;;43.17;22.30;;;11.90;99.90;;;;;;5066668;28;20036;-71
2022/10/28 02:38:33;;;;;;;52.72;28.08;;;11.90;99.90;;;;;;5075147;28;20052;-70
2022/10/28 02:41:06;;;;;;;44.42;23.95;;;12.00;99.90;;;;;;5075064;28;20056;-70
2022/10/28 02:43:36;;;;;;;47.17;24.30;;;12.00;99.90;;;;;;5074915;28;20507;-70
2022/10/28 02:46:03;;;;;;;43.15;20.73;;;12.00;99.90;;;;;;5074406;28;20029;-70
2022/10/28 02:48:46;;;;;;;35.90;18.42;;;11.90;99.90;;;;;;5075017;28;20021;-70
2022/10/28 02:51:17;;;;;;;44.75;20.50;;;11.80;99.90;;;;;;5064507;28;20357;-71
2022/10/28 02:54:06;;;;;;;47.85;24.70;;;11.70;99.90;;;;;;5054551;28;20024;-71
2022/10/28 02:56:38;;;;;;;50.85;23.38;;;11.80;99.90;;;;;;5058901;28;20484;-71
2022/10/28 02:59:08;;;;;;;57.80;26.58;;;11.80;99.90;;;;;;5054278;28;20105;-71
2022/10/28 03:01:34;;;;;;;68.20;29.25;;;11.90;99.90;;;;;;5055121;28;20021;-71
2022/10/28 03:03:59;;;;;;;52.80;24.98;;;12.00;99.90;;;;;;5054623;28;20032;-71
2022/10/28 03:06:25;;;;;;;45.75;24.50;;;12.00;99.90;;;;;;5056501;28;20012;-71
2022/10/28 03:08:50;;;;;;;51.65;26.33;;;11.90;99.90;;;;;;5063629;28;20079;-71
2022/10/28 03:11:18;;;;;;;55.63;27.73;;;11.90;99.90;;;;;;5054145;28;20541;-71
2022/10/28 03:13:43;;;;;;;59.60;27.17;;;11.90;99.90;;;;;;5056502;28;20033;-71
2022/10/28 03:16:09;;;;;;;61.75;28.55;;;11.90;99.90;;;;;;5054573;28;20033;-70
2022/10/28 03:18:34;;;;;;;65.07;30.67;;;12.00;99.90;;;;;;5060890;28;20041;-72
2022/10/28 03:21:00;;;;;;;63.80;28.27;;;12.10;99.90;;;;;;5073905;28;20094;-70
2022/10/28 03:23:25;;;;;;;65.68;31.80;;;12.20;99.90;;;;;;5071544;28;20016;-70
2022/10/28 03:25:51;;;;;;;69.65;31.67;;;12.20;99.90;;;;;;5074334;28;20051;-72
2022/10/28 03:28:16;;;;;;;59.47;28.73;;;12.20;99.90;;;;;;5069402;28;20029;-71
2022/10/28 03:30:42;;;;;;;59.05;27.85;;;12.20;99.90;;;;;;5073720;28;20025;-70
2022/10/28 03:33:07;;;;;;;79.35;33.60;;;12.20;99.90;;;;;;5073554;28;20025;-70
2022/10/28 03:35:33;;;;;;;69.13;31.88;;;12.30;99.90;;;;;;5062038;28;20025;-70
2022/10/28 03:37:58;;;;;;;75.82;32.92;;;12.30;99.90;;;;;;5072517;28;20032;-70
2022/10/28 03:40:24;;;;;;;75.53;32.45;;;12.20;99.90;;;;;;5073528;28;20024;-70
2022/10/28 03:42:49;;;;;;;70.18;33.95;;;12.30;99.90;;;;;;5056144;28;20025;-70
2022/10/28 03:45:15;;;;;;;59.78;31.02;;;12.20;99.90;;;;;;5053736;28;20025;-70
2022/10/28 03:47:40;;;;;;;64.13;30.05;;;12.20;99.90;;;;;;5053330;28;20025;-70
2022/10/28 03:50:06;;;;;;;70.40;31.30;;;12.20;99.90;;;;;;5053774;28;20059;-70
2022/10/28 03:52:32;;;;;;;73.80;33.70;;;12.20;99.90;;;;;;5053655;28;20033;-70
2022/10/28 03:54:57;;;;;;;58.67;31.70;;;12.30;99.90;;;;;;5053408;28;20033;-71
2022/10/28 03:57:23;;;;;;;61.55;30.85;;;12.40;99.90;;;;;;5061431;28;20033;-71
2022/10/28 03:59:49;;;;;;;66.82;32.17;;;12.40;99.90;;;;;;5073558;28;20031;-70
2022/10/28 04:02:14;;;;;;;65.65;29.58;;;12.50;99.90;;;;;;5095260;23;20048;-73
2022/10/28 04:04:40;;;;;;;75.10;33.00;;;12.50;99.90;;;;;;5071334;28;20487;-74
2022/10/28 04:07:06;;;;;;;64.80;29.13;;;12.60;99.90;;;;;;5073954;28;20471;-73
2022/10/28 04:09:31;;;;;;;74.90;30.40;;;12.50;99.90;;;;;;5072796;28;20036;-73
2022/10/28 04:11:57;;;;;;;67.72;32.25;;;12.50;99.90;;;;;;5072953;28;20036;-74
2022/10/28 04:14:22;;;;;;;59.08;28.80;;;12.60;99.90;;;;;;5073527;28;20391;-74
2022/10/28 04:16:48;;;;;;;59.25;29.55;;;12.60;99.90;;;;;;5054764;28;20086;-74
2022/10/28 04:19:13;;;;;;;79.03;32.60;;;12.60;99.90;;;;;;5050410;28;20515;-74
2022/10/28 04:21:39;;;;;;;61.85;29.60;;;12.60;99.90;;;;;;5057444;28;20021;-73
2022/10/28 04:24:05;;;;;;;75.35;33.25;;;12.70;99.90;;;;;;5035843;28;20052;-73
2022/10/28 04:26:30;;;;;;;63.85;27.88;;;12.70;99.90;;;;;;5053863;28;20032;-73
2022/10/28 04:28:56;;;;;;;56.83;28.15;;;12.70;99.90;;;;;;5054089;28;20025;-73
2022/10/28 04:31:22;;;;;;;70.30;33.33;;;12.70;99.90;;;;;;5059810;28;20120;-74
2022/10/28 04:33:47;;;;;;;70.80;31.10;;;12.70;99.90;;;;;;5069382;28;20086;-74
2022/10/28 04:36:13;;;;;;;67.82;30.65;;;12.70;99.90;;;;;;5035765;28;20071;-73
2022/10/28 04:38:38;;;;;;;64.05;30.50;;;12.70;99.90;;;;;;5053853;28;20448;-74
2022/10/28 04:41:04;;;;;;;75.40;32.85;;;12.70;99.90;;;;;;5062799;28;20480;-74
2022/10/28 04:43:29;;;;;;;64.30;32.92;;;12.80;99.90;;;;;;5063716;28;20389;-74
2022/10/28 04:45:55;;;;;;;65.90;31.33;;;12.80;99.90;;;;;;5053729;28;20048;-74
2022/10/28 04:48:21;;;;;;;60.75;31.40;;;12.70;99.90;;;;;;5073258;28;20575;-74
2022/10/28 04:50:46;;;;;;;69.78;33.45;;;12.70;99.90;;;;;;5066807;28;20112;-74
2022/10/28 04:53:12;;;;;;;68.90;33.00;;;12.70;99.90;;;;;;5064905;28;20388;-74
2022/10/28 04:55:38;;;;;;;68.30;28.73;;;12.70;99.90;;;;;;5072971;28;20108;-74
2022/10/28 04:58:03;;;;;;;59.50;28.60;;;12.70;99.90;;;;;;5070350;28;20032;-74
2022/10/28 05:00:29;;;;;;;68.00;32.33;;;12.70;99.90;;;;;;5060993;28;20082;-75
2022/10/28 05:02:55;;;;;;;68.75;33.75;;;12.70;99.90;;;;;;5068765;28;20035;-74
2022/10/28 05:05:21;;;;;;;63.28;32.33;;;12.70;99.90;;;;;;5065792;28;20037;-74
2022/10/28 05:07:46;;;;;;;56.08;29.75;;;12.70;99.90;;;;;;5071478;28;20039;-75
2022/10/28 05:10:14;;;;;;;71.10;33.53;;;12.70;99.90;;;;;;5069944;28;20028;-74
2022/10/28 05:12:44;;;;;;;71.35;32.17;;;12.70;99.90;;;;;;5055296;28;20037;-74
2022/10/28 05:15:11;;;;;;;63.05;30.52;;;12.70;99.90;;;;;;5064913;28;20039;-74
2022/10/28 05:17:42;;;;;;;78.25;34.63;;;12.80;99.90;;;;;;5072759;28;20518;-74
2022/10/28 05:20:08;;;;;;;62.38;31.90;;;12.80;99.90;;;;;;5073000;28;20035;-74
2022/10/28 05:22:34;;;;;;;70.95;33.10;;;12.70;99.90;;;;;;5076461;28;20029;-74
2022/10/28 05:25:00;;;;;;;79.82;31.25;;;12.80;99.90;;;;;;5059647;28;20535;-73
2022/10/28 05:27:25;;;;;;;59.53;32.28;;;12.80;99.90;;;;;;5077012;28;20048;-73
2022/10/28 05:29:51;;;;;;;70.97;34.05;;;12.80;99.90;;;;;;5066955;28;20056;-74
2022/10/28 05:32:16;;;;;;;70.80;35.33;;;12.90;99.90;;;;;;5063515;28;20097;-73
2022/10/28 05:34:42;;;;;;;63.45;34.30;;;12.90;99.90;;;;;;5066733;28;20051;-74
2022/10/28 05:37:07;;;;;;;65.43;34.20;;;13.00;99.90;;;;;;5065200;28;20399;-74
2022/10/28 05:39:33;;;;;;;70.25;33.78;;;13.00;99.90;;;;;;5065640;28;20042;-74
2022/10/28 05:41:58;;;;;;;68.22;35.22;;;13.00;99.90;;;;;;5061715;28;20033;-74
2022/10/28 05:44:23;;;;;;;65.70;34.20;;;12.90;99.90;;;;;;5071153;28;20024;-74
2022/10/28 05:46:49;;;;;;;72.28;34.40;;;12.90;99.90;;;;;;5069993;28;20426;-73
2022/10/28 05:49:19;;;;;;;55.67;31.50;;;13.00;99.90;;;;;;5058059;28;20029;-73
2022/10/28 05:51:45;;;;;;;67.00;33.17;;;13.00;99.90;;;;;;5059773;28;20063;-73
2022/10/28 05:54:10;;;;;;;74.68;34.65;;;13.00;99.90;;;;;;5068338;28;20029;-73
2022/10/28 05:56:36;;;;;;;61.03;30.85;;;12.90;99.90;;;;;;5076152;28;20078;-73
2022/10/28 05:59:01;;;;;;;70.25;33.47;;;12.90;99.90;;;;;;5075676;28;20395;-73
2022/10/28 06:01:27;;;;;;;57.15;30.98;;;12.90;99.90;;;;;;5057898;28;20027;-73
2022/10/28 06:03:52;;;;;;;70.75;32.50;;;12.80;99.90;;;;;;5049116;28;20024;-73
2022/10/28 06:06:18;;;;;;;61.65;31.17;;;12.80;99.90;;;;;;5064137;28;20044;-74
2022/10/28 06:08:44;;;;;;;60.55;30.35;;;12.80;99.90;;;;;;5069433;28;20474;-73
2022/10/28 06:11:10;;;;;;;64.57;28.00;;;12.90;99.90;;;;;;5075828;28;20060;-73
2022/10/28 06:13:35;;;;;;;54.22;26.40;;;12.80;99.90;;;;;;5073372;28;20063;-73
2022/10/28 06:16:04;;;;;;;50.80;28.63;;;12.80;99.90;;;;;;5065915;28;20113;-73
2022/10/28 06:18:29;;;;;;;66.07;29.52;;;12.80;99.90;;;;;;5068304;28;20392;-76
2022/10/28 06:20:58;;;;;;;62.33;29.67;;;12.70;99.90;;;;;;5063864;28;20016;-75
2022/10/28 06:23:25;;;;;;;50.08;28.95;;;12.80;99.90;;;;;;5066426;28;20079;-74
2022/10/28 06:26:00;;;;;;;61.95;30.50;;;12.80;99.90;;;;;;5064732;28;20028;-75
2022/10/28 06:28:26;;;;;;;60.63;31.40;;;12.80;99.90;;;;;;5075228;28;20017;-75
2022/10/28 06:30:51;;;;;;;70.50;31.35;;;12.80;99.90;;;;;;5070699;28;20103;-75
2022/10/28 06:33:17;;;;;;;59.70;29.65;;;12.80;99.90;;;;;;5062781;28;20436;-74
2022/10/28 06:35:43;;;;;;;75.47;31.63;;;12.80;99.90;;;;;;5064289;28;20029;-72
2022/10/28 06:38:09;;;;;;;64.00;30.80;;;12.80;99.90;;;;;;5069813;28;20031;-74
2022/10/28 06:40:34;;;;;;;73.68;31.50;;;12.80;99.90;;;;;;5059626;28;20051;-76
2022/10/28 06:43:02;;;;;;;72.90;32.30;;;12.80;99.90;;;;;;5052242;28;20086;-75
2022/10/28 06:45:29;;;;;;;64.32;30.83;;;12.90;99.90;;;;;;5053624;28;20392;-73
2022/10/28 06:47:56;;;;;;;60.17;28.20;;;12.90;99.90;;;;;;5054475;28;20024;-74
2022/10/28 06:50:22;;;;;;;56.95;28.75;;;12.90;99.90;;;;;;5071329;28;20510;-74
2022/10/28 06:52:48;;;;;;;60.08;27.80;;;12.90;99.90;;;;;;5074926;28;20017;-73
2022/10/28 06:55:13;;;;;;;60.10;26.60;;;12.90;99.90;;;;;;5075017;28;20427;-75
2022/10/28 06:57:39;;;;;;;59.10;29.52;;;12.90;99.90;;;;;;5056591;28;20507;-74
2022/10/28 07:00:05;;;;;;;64.75;31.85;;;12.90;99.90;;;;;;5075233;28;20035;-74
2022/10/28 07:02:30;;;;;;;65.15;30.05;;;13.00;99.90;;;;;;5075036;28;20028;-74
2022/10/28 07:04:56;;;;;;;54.90;28.02;;;13.00;99.90;;;;;;5075236;28;20031;-75
2022/10/28 07:07:21;;;;;;;56.78;28.58;;;13.00;99.90;;;;;;5056935;28;20012;-74
2022/10/28 07:09:47;;;;;;;46.65;25.73;;;12.90;99.90;;;;;;5075117;28;20020;-75
2022/10/28 07:12:13;;;;;;;47.97;25.70;;;13.00;99.90;;;;;;5057157;28;20062;-75
2022/10/28 07:14:38;;;;;;;47.38;24.45;;;12.90;99.90;;;;;;5074955;28;20031;-74
2022/10/28 07:17:04;;;;;;;53.85;26.60;;;12.90;99.90;;;;;;5074792;28;20094;-75
2022/10/28 07:19:29;;;;;;;58.28;30.88;;;12.90;99.90;;;;;;5074829;28;20033;-73
2022/10/28 07:21:55;;;;;;;59.17;29.10;;;13.10;99.90;;;;;;5074541;28;20025;-73
2022/10/28 07:24:20;;;;;;;55.58;26.73;;;13.20;99.90;;;;;;5074528;28;20165;-73
2022/10/28 07:26:48;;;;;;;69.72;29.02;;;13.20;99.90;;;;;;5074330;28;20025;-73
2022/10/28 07:29:14;;;;;;;51.13;29.30;;;13.30;99.90;;;;;;5057245;28;20109;-73
2022/10/28 07:31:39;;;;;;;58.92;28.90;;;13.30;99.90;;;;;;5074386;28;20028;-73
2022/10/28 07:34:05;;;;;;;53.58;29.05;;;13.40;99.90;;;;;;5074199;28;20032;-73
2022/10/28 07:36:30;;;;;;;62.65;30.73;;;13.50;99.90;;;;;;5074080;28;20028;-73
2022/10/28 07:38:56;;;;;;;54.90;29.55;;;13.60;99.90;;;;;;5074090;28;20035;-73
2022/10/28 07:41:22;;;;;;;53.13;30.88;;;13.70;99.90;;;;;;5073998;28;20021;-73
2022/10/28 07:43:48;;;;;;;59.97;30.63;;;13.80;99.90;;;;;;5055946;28;20021;-73
2022/10/28 07:46:14;;;;;;;60.15;29.60;;;13.90;99.90;;;;;;5074255;28;20029;-73
2022/10/28 07:48:40;;;;;;;58.70;28.85;;;14.00;99.90;;;;;;5056103;28;20112;-73
2022/10/28 07:51:07;;;;;;;51.20;27.90;;;14.10;99.90;;;;;;5073882;28;20095;-73
2022/10/28 07:53:33;;;;;;;52.35;25.02;;;14.20;99.90;;;;;;5074034;28;20130;-74
2022/10/28 07:56:02;;;;;;;48.50;24.65;;;14.30;99.90;;;;;;5073802;28;20020;-74
2022/10/28 07:58:27;;;;;;;52.50;24.63;;;14.30;99.90;;;;;;5074104;28;20032;-74
2022/10/28 08:00:53;;;;;;;41.03;23.67;;;14.30;99.90;;;;;;5073818;28;20035;-74
2022/10/28 08:03:19;;;;;;;53.33;25.98;;;14.40;99.90;;;;;;5074087;28;20075;-74
2022/10/28 08:05:45;;;;;;;50.33;24.58;;;14.40;99.90;;;;;;5066849;28;20580;-74
2022/10/28 08:08:10;;;;;;;57.95;27.67;;;14.50;99.90;;;;;;5052749;28;20419;-74
2022/10/28 08:10:36;;;;;;;68.97;27.05;;;14.50;99.90;;;;;;5065626;28;20488;-75
2022/10/28 08:13:01;;;;;;;44.65;24.92;;;14.60;99.90;;;;;;5055248;28;20395;-75
2022/10/28 08:15:28;;;;;;;54.72;24.33;;;14.60;99.90;;;;;;5065643;28;20436;-75
2022/10/28 08:17:54;;;;;;;54.60;25.65;;;14.80;99.90;;;;;;5066205;28;20025;-74
2022/10/28 08:20:20;;;;;;;40.00;24.13;;;14.90;99.90;;;;;;5071918;28;20031;-73
2022/10/28 08:22:45;;;;;;;60.83;27.88;;;15.10;99.90;;;;;;5070191;28;20080;-74
2022/10/28 08:25:11;;;;;;;46.38;23.10;;;15.20;99.90;;;;;;5058719;28;20024;-73
2022/10/28 08:27:37;;;;;;;46.20;24.67;;;15.30;99.90;;;;;;5072547;28;20377;-74
2022/10/28 08:30:03;;;;;;;40.08;22.52;;;15.40;99.90;;;;;;5073522;28;20029;-74
2022/10/28 08:32:29;;;;;;;39.22;22.05;;;15.50;99.90;;;;;;5069176;28;20059;-74
2022/10/28 08:34:54;;;;;;;43.63;20.70;;;15.50;99.90;;;;;;5066293;28;20036;-75
2022/10/28 08:37:20;;;;;;;39.47;19.35;;;15.60;99.90;;;;;;5071538;28;20515;-74
2022/10/28 08:39:45;;;;;;;45.45;21.40;;;15.60;99.90;;;;;;5071421;28;20060;-74
2022/10/28 08:42:34;;;;;;;44.95;19.85;;;15.40;99.90;;;;;;5073100;28;20108;-74
2022/10/28 08:45:47;;;;;;;36.28;18.33;;;15.30;99.90;;;;;;5072674;28;20020;-74
2022/10/28 08:48:33;;;;;;;35.63;17.27;;;15.30;99.90;;;;;;5037867;28;20124;-74
2022/10/28 08:51:10;;;;;;;38.78;17.95;;;15.40;99.90;;;;;;5047655;28;20025;-75
2022/10/28 08:53:43;;;;;;;39.30;17.40;;;15.50;99.90;;;;;;5072628;28;20439;-75
2022/10/28 08:56:14;;;;;;;37.97;18.55;;;15.70;99.90;;;;;;5053168;28;20032;-75
2022/10/28 08:58:43;;;;;;;37.88;17.45;;;15.90;99.90;;;;;;5074731;28;20041;-75
2022/10/28 09:01:16;;;;;;;32.92;16.42;;;16.00;99.90;;;;;;5071395;28;20052;-75
2022/10/28 09:03:44;;;;;;;;;;;16.20;99.90;;;;;;5073637;28;20036;-74
2022/10/28 09:06:10;;;;;;;34.35;15.63;;;16.30;99.90;;;;;;5070209;28;20360;-74
2022/10/28 09:08:40;;;;;;;31.65;15.98;;;16.30;99.90;;;;;;5071327;28;20029;-75
2022/10/28 09:11:47;;;;;;;33.13;15.65;;;16.40;99.90;;;;;;5068453;28;20052;-74
2022/10/28 09:14:18;;;;;;;29.17;13.55;;;16.40;99.90;;;;;;5068565;28;20532;-74
2022/10/28 09:17:09;;;;;;;32.47;13.18;;;16.50;99.90;;;;;;5068364;28;20439;-73
2022/10/28 09:20:02;;;;;;;29.55;13.88;;;16.70;99.90;;;;;;5076110;28;20025;-74
2022/10/28 09:22:37;;;;;;;29.95;12.73;;;16.70;99.90;;;;;;5061193;28;20020;-74
2022/10/28 09:25:20;;;;;;;33.63;12.93;;;16.90;99.90;;;;;;5067038;28;20119;-76
2022/10/28 09:28:13;;;;;;;31.08;12.73;;;17.00;99.90;;;;;;5073009;28;20083;-76
2022/10/28 09:31:11;;;;;;;21.40;12.23;;;16.90;99.90;;;;;;5074659;28;20036;-75
2022/10/28 09:34:00;;;;;;;24.90;12.07;;;17.00;99.90;;;;;;5074686;28;20044;-75
2022/10/28 09:36:41;;;;;;;30.13;11.23;;;17.10;99.90;;;;;;5074397;28;20032;-75
2022/10/28 09:39:18;;;;;;;25.42;11.15;;;17.20;99.90;;;;;;5074492;28;20407;-74
2022/10/28 09:41:46;;;;;;;29.48;11.38;;;17.40;99.90;;;;;;5075482;28;20074;-72
2022/10/28 09:44:18;;;;;;;20.92;9.63;;;17.50;99.90;;;;;;5076318;28;20082;-74
2022/10/28 09:46:47;;;;;;;21.75;9.52;;;17.50;99.90;;;;;;5076354;28;20025;-73
2022/10/28 09:49:22;;;;;;;28.10;10.52;;;17.70;99.90;;;;;;5058238;28;20041;-74
2022/10/28 09:52:08;;;;;;;26.15;10.70;;;17.80;99.90;;;;;;5076532;28;20383;-74
2022/10/28 09:54:40;;;;;;;21.40;9.30;;;17.90;99.90;;;;;;5076303;28;20044;-73
2022/10/28 09:57:06;;;;;;;16.07;8.43;;;17.90;99.90;;;;;;5076104;28;20020;-73
2022/10/28 09:59:33;;;;;;;19.42;8.38;;;18.00;99.90;;;;;;5076613;28;20051;-74
2022/10/28 10:01:59;;;;;;;27.30;8.93;;;18.20;99.90;;;;;;5076558;28;20024;-72
2022/10/28 10:04:27;;;;;;;25.00;9.20;;;18.20;99.90;;;;;;5099027;22;20041;-75
2022/10/28 10:07:09;;;;;;;21.05;8.25;;;18.20;99.90;;;;;;5076532;28;20433;-75
2022/10/28 10:09:37;;;;;;;25.45;8.85;;;18.20;99.90;;;;;;5076430;28;20123;-75
2022/10/28 10:12:08;;;;;;;18.48;8.00;;;18.30;99.90;;;;;;5076224;28;20388;-75
2022/10/28 10:14:45;;;;;;;25.92;7.55;;;18.40;99.90;;;;;;5067467;28;20029;-75
2022/10/28 10:17:15;;;;;;;24.40;8.15;;;18.50;99.90;;;;;;5056367;28;20039;-75
2022/10/28 10:20:00;;;;;;;22.00;6.93;;;18.60;99.90;;;;;;5056051;28;20021;-75
2022/10/28 10:22:31;;;;;;;22.45;6.95;;;18.50;99.90;;;;;;5056157;28;20084;-75
2022/10/28 10:24:56;;;;;;;25.17;8.48;;;18.60;99.90;;;;;;5056346;28;20017;-75
2022/10/28 10:27:24;;;;;;;23.65;7.80;;;18.50;99.90;;;;;;5055454;28;20103;-75
2022/10/28 10:29:51;;;;;;;29.33;9.20;;;18.60;99.90;;;;;;5055356;28;20408;-75
2022/10/28 10:32:30;;;;;;;26.48;8.40;;;18.60;99.90;;;;;;5055865;28;20476;-75
2022/10/28 10:34:57;;;;;;;15.20;6.78;;;18.70;99.90;;;;;;5067204;28;20077;-75
2022/10/28 10:37:23;;;;;;;22.10;7.60;;;18.80;99.90;;;;;;5074278;28;20048;-75
2022/10/28 10:40:26;;;;;;;21.88;7.47;;;18.80;99.90;;;;;;5057451;28;20024;-75
2022/10/28 10:42:53;;;;;;;14.43;6.82;;;18.90;99.90;;;;;;5065812;28;20035;-75
2022/10/28 10:45:24;;;;;;;25.83;6.53;;;18.90;99.90;;;;;;5075761;28;20044;-75
2022/10/28 10:48:06;;;;;;;24.73;7.40;;;19.00;99.90;;;;;;5075529;28;20519;-74
2022/10/28 10:50:32;;;;;;;26.63;6.57;;;19.00;99.90;;;;;;5056438;28;20032;-75
2022/10/28 10:53:00;;;;;;;18.75;6.90;;;19.10;99.90;;;;;;5055326;28;20025;-75
2022/10/28 10:55:49;;;;;;;18.15;6.30;;;19.20;99.90;;;;;;5058015;28;20029;-75
2022/10/28 10:58:18;;;;;;;22.50;6.43;;;19.30;99.90;;;;;;5054003;28;20021;-75
2022/10/28 11:00:47;;;;;;;20.60;7.13;;;19.30;99.90;;;;;;5066268;28;20036;-75
2022/10/28 11:03:26;;;;;;;25.63;8.30;;;19.50;99.90;;;;;;5057126;28;20033;-75
2022/10/28 11:05:55;;;;;;;20.92;7.35;;;19.40;99.90;;;;;;5075001;28;20038;-75
2022/10/28 11:08:34;;;;;;;18.42;7.00;;;19.20;99.90;;;;;;5075097;28;20100;-75
2022/10/28 11:11:04;;;;;;;23.63;7.25;;;19.10;99.90;;;;;;5075463;28;20033;-76
2022/10/28 11:13:31;;;;;;;24.13;8.23;;;19.10;99.90;;;;;;5075038;28;20032;-79
2022/10/28 11:16:01;;;;;;;24.98;7.60;;;19.10;99.90;;;;;;5077866;28;20024;-77
2022/10/28 11:18:30;;;;;;;27.75;7.63;;;19.00;99.90;;;;;;5078686;28;20033;-79
2022/10/28 11:20:59;;;;;;;20.23;6.97;;;19.00;99.90;;;;;;5073114;28;20036;-78
2022/10/28 11:23:46;;;;;;;31.15;8.50;;;19.10;99.90;;;;;;5082271;28;20054;-79
2022/10/28 11:26:14;;;;;;;23.35;8.52;;;18.90;99.90;;;;;;5065937;28;20048;-77
2022/10/28 11:29:01;;;;;;;26.25;8.35;;;19.00;99.90;;;;;;5063062;28;20056;-78
2022/10/28 11:32:06;;;;;;;24.65;8.02;;;18.90;99.90;;;;;;5066693;28;20017;-79
2022/10/28 11:34:46;;;;;;;21.83;7.57;;;18.90;99.90;;;;;;5054415;28;20029;-79
2022/10/28 11:37:49;;;;;;;21.20;6.90;;;18.90;99.90;;;;;;5077143;28;20103;-79
2022/10/28 11:40:47;;;;;;;29.80;8.15;;;19.00;99.90;;;;;;5085015;28;20083;-77
2022/10/28 11:43:31;;;;;;;26.13;7.78;;;19.20;99.90;;;;;;5084093;28;20017;-77
2022/10/28 11:45:56;;;;;;;27.80;8.02;;;19.30;99.90;;;;;;5084559;28;20016;-78
2022/10/28 11:48:40;;;;;;;21.65;6.93;;;19.30;99.90;;;;;;5050761;28;20018;-78
2022/10/28 11:51:21;;;;;;;26.35;7.75;;;19.40;99.90;;;;;;5045654;28;20036;-78
2022/10/28 11:54:05;;;;;;;34.65;7.55;;;19.40;99.90;;;;;;5075014;28;20056;-78
2022/10/28 11:56:36;;;;;;;30.38;8.57;;;19.30;99.90;;;;;;5081442;28;20028;-78
2022/10/28 11:59:28;;;;;;;17.60;7.30;;;19.20;99.90;;;;;;5078262;28;20035;-76
2022/10/28 12:02:03;;;;;;;18.15;8.30;;;19.20;99.90;;;;;;5066160;28;20028;-78
2022/10/28 12:05:02;;;;;;;22.10;8.13;;;19.20;99.90;;;;;;5071313;28;20029;-78
2022/10/28 12:07:40;;;;;;;24.90;7.97;;;19.30;99.90;;;;;;5045608;28;20112;-78
2022/10/28 12:10:10;;;;;;;26.60;8.25;;;19.50;99.90;;;;;;5062599;28;20021;-78
2022/10/28 12:12:46;;;;;;;18.70;8.05;;;19.40;99.90;;;;;;5064571;28;20021;-78
2022/10/28 12:15:26;;;;;;;28.33;8.10;;;19.40;99.90;;;;;;5078535;28;20375;-78
2022/10/28 12:18:10;;;;;;;27.17;8.95;;;19.20;99.90;;;;;;5083205;28;20040;-78
2022/10/28 12:20:46;;;;;;;27.70;8.05;;;19.00;99.90;;;;;;5082835;28;20060;-78
2022/10/28 12:23:17;;;;;;;21.23;7.05;;;19.10;99.90;;;;;;5085267;28;20147;-78
2022/10/28 12:25:45;;;;;;;21.38;7.55;;;19.20;99.90;;;;;;5082708;28;20021;-79
2022/10/28 12:28:20;;;;;;;19.77;8.13;;;19.30;99.90;;;;;;5082382;28;20013;-78
2022/10/28 12:30:48;;;;;;;14.45;6.45;;;19.40;99.90;;;;;;5082741;28;20052;-79
2022/10/28 12:33:35;;;;;;;29.15;8.50;;;19.70;99.90;;;;;;5085674;28;20035;-78
2022/10/28 12:36:04;;;;;;;22.00;7.95;;;19.90;99.90;;;;;;5085060;28;20029;-79
2022/10/28 12:38:37;;;;;;;30.05;8.00;;;19.80;99.90;;;;;;5086237;28;20024;-79
2022/10/28 12:41:10;;;;;;;;;;;19.80;99.90;;;;;;5084778;28;20061;-76
2022/10/28 12:44:05;;;;;;;18.48;8.23;;;19.80;99.90;;;;;;5077585;28;20455;-75
2022/10/28 12:47:05;;;;;;;20.73;7.40;;;19.90;99.90;;;;;;5054358;28;20066;-76
2022/10/28 12:49:47;;;;;;;28.27;9.60;;;20.00;99.90;;;;;;5077844;28;20033;-77
2022/10/28 12:52:36;;;;;;;31.58;7.97;;;19.70;99.90;;;;;;5077988;28;20032;-76